Time;durP1;ratioP1;P1;durP2;ratioP2;P2;SDS_P1;SDS_P2;PMS_P1;PMS_P2;Temp;Humidity;BMP_temperature;BMP_pressure;BME280_temperature;BME280_humidity;BME280_pressure;Samples;Min_cycle;Max_cycle;Signal;HPM_P1;HPM_P2
2023/03/24 00:00:10;;;;;;;;;2.50;2.00;;;;;;;;6336744;22;45307;-79
2023/03/24 00:02:36;;;;;;;;;2.00;1.00;;;;;;;;6335629;22;45475;-78
2023/03/24 00:05:02;;;;;;;;;5.50;2.75;;;;;;;;6336081;22;46887;-79
2023/03/24 00:07:29;;;;;;;;;1.00;1.00;;;;;;;;6336017;22;45745;-79
2023/03/24 00:09:54;;;;;;;;;8.00;2.00;;;;;;;;6336074;22;45323;-78
2023/03/24 00:12:19;;;;;;;;;4.00;3.00;;;;;;;;6336401;22;45404;-79
2023/03/24 00:14:47;;;;;;;;;4.67;2.00;;;;;;;;6335927;22;46297;-79
2023/03/24 00:17:13;;;;;;;;;3.75;3.00;;;;;;;;6335951;22;45367;-80
2023/03/24 00:19:39;;;;;;;;;2.00;2.00;;;;;;;;6336706;22;45375;-79
2023/03/24 00:22:04;;;;;;;;;3.00;3.00;;;;;;;;6336355;22;45415;-79
2023/03/24 00:24:30;;;;;;;;;2.00;2.00;;;;;;;;6336186;22;45238;-79
2023/03/24 00:26:56;;;;;;;;;2.25;2.00;;;;;;;;6336397;22;45246;-80
2023/03/24 00:29:22;;;;;;;;;3.00;2.00;;;;;;;;6336286;22;45225;-80
2023/03/24 00:31:47;;;;;;;;;3.00;2.00;;;;;;;;6336303;22;45240;-80
2023/03/24 00:34:12;;;;;;;;;2.00;1.67;;;;;;;;6335779;22;45352;-79
2023/03/24 00:36:37;;;;;;;;;2.33;2.00;;;;;;;;6336563;22;45293;-78
2023/03/24 00:39:04;;;;;;;;;1.00;1.00;;;;;;;;6335394;22;45355;-79
2023/03/24 00:41:30;;;;;;;;;3.75;2.00;;;;;;;;6336014;22;45344;-78
2023/03/24 00:43:57;;;;;;;;;2.25;1.25;;;;;;;;6335936;22;46347;-79
2023/03/24 00:46:28;;;;;;;;;1.00;1.00;;;;;;;;6334249;22;45599;-79
2023/03/24 00:49:00;;;;;;;;;2.25;1.00;;;;;;;;6336436;22;45268;-79
2023/03/24 00:51:26;;;;;;;;;3.00;2.75;;;;;;;;6335638;22;45220;-78
2023/03/24 00:53:56;;;;;;;;;2.50;1.50;;;;;;;;6334902;22;48224;-80
2023/03/24 00:56:22;;;;;;;;;2.00;1.00;;;;;;;;6336012;22;45319;-80
2023/03/24 00:58:47;;;;;;;;;1.75;1.00;;;;;;;;6336537;22;45280;-79
2023/03/24 01:01:12;;;;;;;;;1.00;1.00;;;;;;;;6335724;22;45539;-79
2023/03/24 01:03:46;;;;;;;;;2.00;2.00;;;;;;;;6336066;22;46246;-79
2023/03/24 01:06:12;;;;;;;;;1.00;1.00;;;;;;;;6335203;22;45319;-79
2023/03/24 01:08:37;;;;;;;;;1.00;1.00;;;;;;;;6336492;22;45248;-79
2023/03/24 01:11:04;;;;;;;;;2.00;1.00;;;;;;;;6336268;22;45794;-79
2023/03/24 01:13:29;;;;;;;;;1.00;1.00;;;;;;;;6335546;22;46800;-79
2023/03/24 01:15:55;;;;;;;;;2.25;1.50;;;;;;;;6334008;22;45242;-79
2023/03/24 01:18:22;;;;;;;;;3.00;2.00;;;;;;;;6335943;22;45215;-79
2023/03/24 01:20:48;;;;;;;;;2.50;2.00;;;;;;;;6335171;22;45251;-79
2023/03/24 01:23:14;;;;;;;;;1.00;1.00;;;;;;;;6335765;22;47151;-79
2023/03/24 01:25:44;;;;;;;;;1.00;1.00;;;;;;;;6336013;22;45322;-78
2023/03/24 01:28:09;;;;;;;;;1.00;1.00;;;;;;;;6335903;22;45148;-78
2023/03/24 01:30:34;;;;;;;;;2.75;1.00;;;;;;;;6335819;22;45217;-78
2023/03/24 01:32:59;;;;;;;;;2.00;1.00;;;;;;;;6335400;22;45383;-78
2023/03/24 01:35:25;;;;;;;;;0.33;0.33;;;;;;;;6335844;22;45260;-79
2023/03/24 01:37:51;;;;;;;;;3.00;1.25;;;;;;;;6336209;22;45189;-79
2023/03/24 01:40:21;;;;;;;;;2.00;1.00;;;;;;;;6336047;22;45186;-79
2023/03/24 01:42:46;;;;;;;;;2.00;0.50;;;;;;;;6335797;22;45411;-79
2023/03/24 01:45:30;;;;;;;;;2.00;0.00;;;;;;;;6335769;22;45241;-79
2023/03/24 01:47:55;;;;;;;;;0.00;0.00;;;;;;;;6335717;22;45229;-80
2023/03/24 01:50:20;;;;;;;;;1.00;1.00;;;;;;;;6335681;22;45276;-79
2023/03/24 01:52:46;;;;;;;;;2.00;1.00;;;;;;;;6335982;22;46201;-79
2023/03/24 01:55:14;;;;;;;;;2.67;1.00;;;;;;;;6335153;22;45453;-79
2023/03/24 01:57:52;;;;;;;;;2.00;1.00;;;;;;;;6335539;22;45218;-78
2023/03/24 02:00:18;;;;;;;;;0.00;0.00;;;;;;;;6335765;22;45363;-79
2023/03/24 02:02:45;;;;;;;;;1.00;1.00;;;;;;;;6335438;22;47113;-79
2023/03/24 02:05:12;;;;;;;;;1.00;1.00;;;;;;;;6335542;22;45260;-79
2023/03/24 02:07:43;;;;;;;;;1.00;1.00;;;;;;;;6335816;22;45391;-79
2023/03/24 02:10:11;;;;;;;;;2.00;0.50;;;;;;;;6335444;22;45450;-79
2023/03/24 02:12:36;;;;;;;;;0.00;0.00;;;;;;;;6335343;22;46960;-79
2023/03/24 02:15:02;;;;;;;;;0.00;0.00;;;;;;;;6335215;22;45276;-78
2023/03/24 02:17:32;;;;;;;;;1.00;0.00;;;;;;;;6335264;22;45261;-79
2023/03/24 02:20:10;;;;;;;;;1.00;1.00;;;;;;;;6335249;22;45221;-78
2023/03/24 02:22:38;;;;;;;;;0.00;0.00;;;;;;;;6335534;22;45355;-79
2023/03/24 02:25:03;;;;;;;;;1.00;0.75;;;;;;;;6335718;22;45308;-79
2023/03/24 02:27:41;;;;;;;;;0.75;0.00;;;;;;;;6336409;22;45352;-79
2023/03/24 02:30:21;;;;;;;;;1.00;0.25;;;;;;;;6336841;22;45387;-79
2023/03/24 02:32:52;;;;;;;;;1.00;1.00;;;;;;;;6336766;22;45669;-79
2023/03/24 02:35:36;;;;;;;;;2.25;1.00;;;;;;;;6336252;22;45147;-79
2023/03/24 02:38:18;;;;;;;;;2.00;0.00;;;;;;;;6337066;22;45140;-79
2023/03/24 02:40:47;;;;;;;;;0.75;0.00;;;;;;;;6337165;22;45357;-78
2023/03/24 02:43:12;;;;;;;;;1.00;1.00;;;;;;;;6336518;22;45417;-79
2023/03/24 02:45:46;;;;;;;;;0.00;0.00;;;;;;;;6336878;22;45145;-78
2023/03/24 02:48:11;;;;;;;;;0.00;0.00;;;;;;;;6336278;22;45213;-79
2023/03/24 02:50:53;;;;;;;;;0.00;0.00;;;;;;;;6337111;22;45280;-78
2023/03/24 02:53:21;;;;;;;;;1.00;0.50;;;;;;;;6336572;22;46188;-79
2023/03/24 02:56:00;;;;;;;;;1.25;0.00;;;;;;;;6336060;22;45589;-79
2023/03/24 02:58:37;;;;;;;;;2.00;0.00;;;;;;;;6336483;22;45311;-79
2023/03/24 03:01:06;;;;;;;;;0.00;0.00;;;;;;;;6336839;22;45463;-79
2023/03/24 03:03:37;;;;;;;;;1.00;0.00;;;;;;;;6336069;22;46132;-79
2023/03/24 03:06:05;;;;;;;;;0.00;0.00;;;;;;;;6334796;22;45528;-79
2023/03/24 03:08:32;;;;;;;;;0.25;0.25;;;;;;;;6337280;22;45265;-79
2023/03/24 03:11:00;;;;;;;;;0.50;0.00;;;;;;;;6336267;22;45252;-79
2023/03/24 03:13:26;;;;;;;;;2.00;0.00;;;;;;;;6336877;22;46179;-78
2023/03/24 03:15:54;;;;;;;;;1.25;0.00;;;;;;;;6336181;22;45604;-78
2023/03/24 03:18:27;;;;;;;;;0.00;0.00;;;;;;;;6336534;22;45364;-78
2023/03/24 03:20:55;;;;;;;;;0.00;0.00;;;;;;;;6336267;22;45295;-79
2023/03/24 03:23:37;;;;;;;;;0.00;0.00;;;;;;;;6336274;22;46524;-79
2023/03/24 03:26:04;;;;;;;;;0.00;0.00;;;;;;;;6336978;22;45225;-79
2023/03/24 03:28:32;;;;;;;;;0.00;0.00;;;;;;;;6336655;22;45336;-80
2023/03/24 03:31:00;;;;;;;;;0.00;0.00;;;;;;;;6336438;22;45414;-78
2023/03/24 03:33:30;;;;;;;;;0.00;0.00;;;;;;;;6336311;22;46515;-79
2023/03/24 03:36:07;;;;;;;;;0.00;0.00;;;;;;;;6336353;22;45273;-79
2023/03/24 03:38:51;;;;;;;;;1.00;0.00;;;;;;;;6335756;22;45336;-79
2023/03/24 03:41:17;;;;;;;;;0.00;0.00;;;;;;;;6336295;22;45364;-79
2023/03/24 03:43:43;;;;;;;;;0.00;0.00;;;;;;;;6336294;22;45993;-79
2023/03/24 03:46:08;;;;;;;;;0.00;0.00;;;;;;;;6336175;22;45377;-79
2023/03/24 03:48:35;;;;;;;;;0.00;0.00;;;;;;;;6336977;22;45289;-79
2023/03/24 03:51:00;;;;;;;;;0.00;0.00;;;;;;;;6336161;22;45410;-78
2023/03/24 03:53:29;;;;;;;;;0.25;0.00;;;;;;;;6336026;22;46038;-78
2023/03/24 03:55:55;;;;;;;;;0.00;0.00;;;;;;;;6336249;22;45518;-79
2023/03/24 03:58:21;;;;;;;;;0.00;0.00;;;;;;;;6336322;22;45257;-78
2023/03/24 04:00:47;;;;;;;;;0.00;0.00;;;;;;;;6335790;22;45153;-78
2023/03/24 04:03:29;;;;;;;;;0.00;0.00;;;;;;;;6336472;22;45291;-78
2023/03/24 04:06:18;;;;;;;;;1.00;0.00;;;;;;;;6336136;22;45269;-78
2023/03/24 04:08:51;;;;;;;;;0.00;0.00;;;;;;;;6336486;22;45544;-78
2023/03/24 04:11:19;;;;;;;;;1.00;0.00;;;;;;;;6336271;22;45549;-78
2023/03/24 04:13:44;;;;;;;;;0.50;0.50;;;;;;;;6336237;22;46351;-77
2023/03/24 04:16:28;;;;;;;;;0.67;0.00;;;;;;;;6333875;22;45284;-78
2023/03/24 04:19:02;;;;;;;;;0.50;0.00;;;;;;;;6336446;22;45401;-78
2023/03/24 04:21:35;;;;;;;;;0.25;0.00;;;;;;;;6336423;22;45165;-78
2023/03/24 04:24:04;;;;;;;;;0.00;0.00;;;;;;;;6336371;22;46114;-78
2023/03/24 04:26:33;;;;;;;;;2.00;1.00;;;;;;;;6335949;22;45543;-78
2023/03/24 04:29:16;;;;;;;;;0.00;0.00;;;;;;;;6336287;22;45367;-78
2023/03/24 04:31:48;;;;;;;;;0.00;0.00;;;;;;;;6336095;22;45331;-78
2023/03/24 04:34:28;;;;;;;;;1.00;0.00;;;;;;;;6336201;22;47299;-78
2023/03/24 04:37:02;;;;;;;;;1.00;0.00;;;;;;;;6336075;22;45314;-78
2023/03/24 04:39:29;;;;;;;;;3.00;0.00;;;;;;;;6336261;22;45290;-78
2023/03/24 04:41:56;;;;;;;;;3.00;0.00;;;;;;;;6336457;22;45280;-78
2023/03/24 04:44:21;;;;;;;;;2.50;0.00;;;;;;;;6336015;22;45218;-78
2023/03/24 04:46:50;;;;;;;;;2.00;0.00;;;;;;;;6336422;22;45276;-78
2023/03/24 04:49:18;;;;;;;;;0.00;0.00;;;;;;;;6336680;22;45243;-78
2023/03/24 04:51:44;;;;;;;;;2.50;0.00;;;;;;;;6336416;22;45344;-78
2023/03/24 04:54:10;;;;;;;;;1.00;0.00;;;;;;;;6335820;22;46319;-78
2023/03/24 04:56:38;;;;;;;;;1.00;0.00;;;;;;;;6336341;22;45299;-78
2023/03/24 04:59:03;;;;;;;;;0.00;0.00;;;;;;;;6336441;22;45272;-78
2023/03/24 05:01:29;;;;;;;;;1.00;0.00;;;;;;;;6336479;22;45154;-78
2023/03/24 05:03:55;;;;;;;;;0.00;0.00;;;;;;;;6335633;22;45270;-78
2023/03/24 05:06:20;;;;;;;;;0.00;0.00;;;;;;;;6336209;22;45863;-78
2023/03/24 05:08:46;;;;;;;;;0.00;0.00;;;;;;;;6336271;22;45256;-78
2023/03/24 05:11:11;;;;;;;;;0.00;0.00;;;;;;;;6336143;22;45323;-78
2023/03/24 05:13:36;;;;;;;;;2.25;0.00;;;;;;;;6335688;22;45461;-79
2023/03/24 05:16:02;;;;;;;;;2.00;0.00;;;;;;;;6335800;22;45402;-77
2023/03/24 05:18:27;;;;;;;;;0.00;0.00;;;;;;;;6335852;22;45272;-78
2023/03/24 05:20:53;;;;;;;;;1.67;0.33;;;;;;;;6335799;22;45241;-79
2023/03/24 05:23:18;;;;;;;;;1.00;0.00;;;;;;;;6336310;22;45646;-77
2023/03/24 05:25:44;;;;;;;;;1.00;0.00;;;;;;;;6336069;22;45286;-78
2023/03/24 05:28:10;;;;;;;;;0.00;0.00;;;;;;;;6335609;22;45289;-79
2023/03/24 05:30:35;;;;;;;;;1.00;0.00;;;;;;;;6335908;22;45373;-78
2023/03/24 05:33:00;;;;;;;;;0.00;0.00;;;;;;;;6335520;22;45548;-78
2023/03/24 05:35:25;;;;;;;;;0.67;0.67;;;;;;;;6335793;22;45166;-79
2023/03/24 05:37:51;;;;;;;;;1.00;1.00;;;;;;;;6336018;22;45247;-78
2023/03/24 05:40:16;;;;;;;;;0.75;0.00;;;;;;;;6335660;22;45480;-78
2023/03/24 05:42:42;;;;;;;;;0.00;0.00;;;;;;;;6335357;22;46561;-78
2023/03/24 05:45:07;;;;;;;;;0.00;0.00;;;;;;;;6335602;22;45281;-78
2023/03/24 05:47:33;;;;;;;;;0.50;0.50;;;;;;;;6336062;22;45227;-78
2023/03/24 05:49:58;;;;;;;;;1.00;0.00;;;;;;;;6336013;22;45369;-78
2023/03/24 05:52:23;;;;;;;;;2.00;0.00;;;;;;;;6335381;22;46617;-78
2023/03/24 05:54:50;;;;;;;;;0.00;0.00;;;;;;;;6335285;22;45213;-78
2023/03/24 05:57:17;;;;;;;;;1.00;0.25;;;;;;;;6335786;22;45572;-77
2023/03/24 05:59:42;;;;;;;;;0.25;0.00;;;;;;;;6335573;22;45261;-77
2023/03/24 06:02:07;;;;;;;;;0.00;0.00;;;;;;;;6335429;22;45904;-78
2023/03/24 06:04:33;;;;;;;;;3.75;0.50;;;;;;;;6333794;22;45324;-78
2023/03/24 06:06:58;;;;;;;;;0.00;0.00;;;;;;;;6333989;22;45254;-78
2023/03/24 06:09:24;;;;;;;;;0.00;0.00;;;;;;;;6336142;22;45383;-78
2023/03/24 06:11:50;;;;;;;;;0.00;0.00;;;;;;;;6334983;22;47361;-79
2023/03/24 06:14:15;;;;;;;;;1.00;0.00;;;;;;;;6335483;22;45256;-78
2023/03/24 06:16:41;;;;;;;;;0.00;0.00;;;;;;;;6335602;22;45178;-79
2023/03/24 06:19:06;;;;;;;;;0.00;0.00;;;;;;;;6335374;22;45462;-78
2023/03/24 06:21:32;;;;;;;;;2.00;0.00;;;;;;;;6333613;22;47224;-78
2023/03/24 06:23:58;;;;;;;;;0.00;0.00;;;;;;;;6335654;22;45225;-77
2023/03/24 06:26:23;;;;;;;;;2.25;0.00;;;;;;;;6334690;22;45197;-80
2023/03/24 06:28:50;;;;;;;;;0.00;0.00;;;;;;;;6335551;22;45497;-77
2023/03/24 06:31:18;;;;;;;;;2.00;0.00;;;;;;;;6335710;22;45266;-78
2023/03/24 06:33:43;;;;;;;;;0.50;0.50;;;;;;;;6335863;22;45298;-78
2023/03/24 06:36:09;;;;;;;;;2.33;0.00;;;;;;;;6335713;22;45365;-79
2023/03/24 06:38:34;;;;;;;;;0.00;0.00;;;;;;;;6335058;22;45358;-79
2023/03/24 06:41:00;;;;;;;;;1.00;0.00;;;;;;;;6334994;22;46610;-79
2023/03/24 06:43:25;;;;;;;;;1.75;0.25;;;;;;;;6335300;22;45232;-81
2023/03/24 06:45:50;;;;;;;;;2.00;0.00;;;;;;;;6335432;22;45386;-80
2023/03/24 06:48:15;;;;;;;;;0.33;0.00;;;;;;;;6335043;22;45179;-79
2023/03/24 06:50:41;;;;;;;;;2.00;0.00;;;;;;;;6334212;22;45320;-78
2023/03/24 06:53:06;;;;;;;;;0.00;0.00;;;;;;;;6334024;22;45259;-79
2023/03/24 06:55:31;;;;;;;;;0.67;0.33;;;;;;;;6335269;22;45263;-80
2023/03/24 06:57:56;;;;;;;;;2.00;1.00;;;;;;;;6335160;22;45172;-80
2023/03/24 07:00:22;;;;;;;;;0.00;0.00;;;;;;;;6335661;22;46259;-81
2023/03/24 07:02:47;;;;;;;;;1.00;1.00;;;;;;;;6334900;22;45271;-80
2023/03/24 07:05:12;;;;;;;;;0.00;0.00;;;;;;;;6335805;22;45334;-79
2023/03/24 07:07:37;;;;;;;;;1.00;0.00;;;;;;;;6335790;22;45388;-80
2023/03/24 07:10:03;;;;;;;;;3.00;0.00;;;;;;;;6334959;22;46516;-78
2023/03/24 07:12:29;;;;;;;;;0.00;0.00;;;;;;;;6335366;22;45271;-80
2023/03/24 07:14:55;;;;;;;;;1.75;0.50;;;;;;;;6335199;22;45365;-81
2023/03/24 07:17:20;;;;;;;;;2.00;0.50;;;;;;;;6336010;22;45395;-80
2023/03/24 07:19:45;;;;;;;;;0.00;0.00;;;;;;;;6334508;22;46184;-78
2023/03/24 07:22:11;;;;;;;;;4.00;0.67;;;;;;;;6336112;22;45438;-81
2023/03/24 07:24:36;;;;;;;;;3.00;0.00;;;;;;;;6336092;22;45294;-80
2023/03/24 07:27:02;;;;;;;;;1.67;0.00;;;;;;;;6336468;22;45190;-80
2023/03/24 07:29:27;;;;;;;;;1.00;1.00;;;;;;;;6335967;22;46160;-79
2023/03/24 07:31:53;;;;;;;;;0.00;0.00;;;;;;;;6336547;22;45349;-80
2023/03/24 07:34:18;;;;;;;;;1.00;0.00;;;;;;;;6336371;22;45362;-79
2023/03/24 07:36:44;;;;;;;;;0.00;0.00;;;;;;;;6336531;22;45271;-79
2023/03/24 07:39:09;;;;;;;;;0.00;0.00;;;;;;;;6335423;22;45979;-81
2023/03/24 07:41:34;;;;;;;;;2.00;0.00;;;;;;;;6335992;22;45334;-80
2023/03/24 07:44:00;;;;;;;;;4.75;1.00;;;;;;;;6336007;22;45336;-80
2023/03/24 07:46:25;;;;;;;;;0.25;0.00;;;;;;;;6336604;22;45324;-81
2023/03/24 07:48:51;;;;;;;;;0.67;0.00;;;;;;;;6336243;22;47510;-80
2023/03/24 07:51:16;;;;;;;;;1.00;0.00;;;;;;;;6335800;22;45292;-80
2023/03/24 07:53:44;;;;;;;;;2.25;1.00;;;;;;;;6335799;22;45228;-81
2023/03/24 07:56:09;;;;;;;;;2.75;0.75;;;;;;;;6336509;22;45150;-81
2023/03/24 07:58:34;;;;;;;;;2.00;1.00;;;;;;;;6336174;22;45505;-81
2023/03/24 08:01:00;;;;;;;;;0.67;0.67;;;;;;;;6336500;22;45502;-81
2023/03/24 08:03:26;;;;;;;;;0.00;0.00;;;;;;;;6336800;22;45307;-80
2023/03/24 08:05:51;;;;;;;;;1.00;0.00;;;;;;;;6336456;22;45318;-81
2023/03/24 08:08:16;;;;;;;;;0.00;0.00;;;;;;;;6335683;22;45441;-80
2023/03/24 08:10:44;;;;;;;;;0.00;0.00;;;;;;;;6336278;22;45481;-78
2023/03/24 08:13:09;;;;;;;;;0.00;0.00;;;;;;;;6337090;22;45273;-79
2023/03/24 08:15:35;;;;;;;;;1.00;0.00;;;;;;;;6336773;22;45206;-80
2023/03/24 08:18:00;;;;;;;;;0.00;0.00;;;;;;;;6336610;22;45268;-82
2023/03/24 08:20:26;;;;;;;;;4.33;0.00;;;;;;;;6336302;22;45252;-81
2023/03/24 08:22:53;;;;;;;;;2.75;0.75;;;;;;;;6335961;22;45368;-80
2023/03/24 08:25:19;;;;;;;;;1.00;0.00;;;;;;;;6336167;22;45395;-80
2023/03/24 08:27:45;;;;;;;;;0.75;0.00;;;;;;;;6336249;22;45529;-80
2023/03/24 08:30:13;;;;;;;;;1.00;1.00;;;;;;;;6336095;22;45661;-78
2023/03/24 08:32:42;;;;;;;;;0.25;0.00;;;;;;;;6334971;22;45343;-79
2023/03/24 08:35:09;;;;;;;;;4.00;0.50;;;;;;;;6336412;22;45224;-79
2023/03/24 08:37:34;;;;;;;;;3.00;1.00;;;;;;;;6336001;22;45454;-80
2023/03/24 08:40:10;;;;;;;;;0.00;0.00;;;;;;;;6336049;22;45149;-80
2023/03/24 08:42:36;;;;;;;;;0.50;0.00;;;;;;;;6333530;22;45345;-79
2023/03/24 08:45:01;;;;;;;;;1.00;0.00;;;;;;;;6332229;22;45469;-79
2023/03/24 08:47:27;;;;;;;;;0.00;0.00;;;;;;;;6334977;22;45350;-79
2023/03/24 08:49:56;;;;;;;;;0.50;0.00;;;;;;;;6335666;22;45308;-78
2023/03/24 08:52:22;;;;;;;;;0.00;0.00;;;;;;;;6335079;22;45343;-77
2023/03/24 08:54:47;;;;;;;;;0.00;0.00;;;;;;;;6335420;22;45273;-79
2023/03/24 08:57:12;;;;;;;;;3.00;0.00;;;;;;;;6334796;22;46624;-79
2023/03/24 08:59:38;;;;;;;;;1.00;0.00;;;;;;;;6334921;22;45303;-80
2023/03/24 09:02:04;;;;;;;;;0.75;0.00;;;;;;;;6332795;22;45270;-79
2023/03/24 09:04:29;;;;;;;;;0.00;0.00;;;;;;;;6334888;22;45886;-79
2023/03/24 09:06:58;;;;;;;;;1.00;0.00;;;;;;;;6334712;22;46505;-79
2023/03/24 09:09:24;;;;;;;;;5.00;1.00;;;;;;;;6334981;22;45391;-79
2023/03/24 09:11:49;;;;;;;;;0.00;0.00;;;;;;;;6333993;22;45363;-80
2023/03/24 09:14:14;;;;;;;;;4.00;1.00;;;;;;;;6330445;22;45711;-80
2023/03/24 09:16:40;;;;;;;;;1.50;0.00;;;;;;;;6334102;22;46924;-78
2023/03/24 09:19:06;;;;;;;;;1.00;0.00;;;;;;;;6332570;22;45546;-80
2023/03/24 09:21:31;;;;;;;;;3.50;0.00;;;;;;;;6334695;22;45324;-78
2023/03/24 09:23:56;;;;;;;;;1.00;0.00;;;;;;;;6335072;22;45419;-78
2023/03/24 09:26:21;;;;;;;;;2.00;0.00;;;;;;;;6334890;22;45465;-80
2023/03/24 09:28:47;;;;;;;;;1.25;0.00;;;;;;;;6335243;22;45340;-79
2023/03/24 09:31:12;;;;;;;;;0.00;0.00;;;;;;;;6335432;22;45265;-77
2023/03/24 09:33:37;;;;;;;;;3.25;0.00;;;;;;;;6334595;22;45209;-81
2023/03/24 09:36:03;;;;;;;;;0.00;0.00;;;;;;;;6333508;22;45350;-78
2023/03/24 09:38:29;;;;;;;;;0.00;0.00;;;;;;;;6334283;22;45293;-79
2023/03/24 09:40:56;;;;;;;;;0.00;0.00;;;;;;;;6334416;22;45383;-79
2023/03/24 09:43:43;;;;;;;;;5.25;0.00;;;;;;;;6335162;22;45284;-79
2023/03/24 09:46:14;;;;;;;;;0.50;0.00;;;;;;;;6335167;22;46268;-78
2023/03/24 09:48:42;;;;;;;;;3.25;0.00;;;;;;;;6333854;22;45602;-79
2023/03/24 09:51:12;;;;;;;;;0.00;0.00;;;;;;;;6334579;22;45270;-79
2023/03/24 09:53:55;;;;;;;;;0.00;0.00;;;;;;;;6333234;22;45191;-78
2023/03/24 09:56:21;;;;;;;;;0.50;0.00;;;;;;;;6332297;22;46717;-77
2023/03/24 09:58:50;;;;;;;;;0.50;0.00;;;;;;;;6334669;22;45680;-77
2023/03/24 10:01:16;;;;;;;;;3.00;0.00;;;;;;;;6334174;22;45393;-76
2023/03/24 10:03:41;;;;;;;;;0.50;0.00;;;;;;;;6334450;22;45335;-78
2023/03/24 10:06:08;;;;;;;;;1.25;1.00;;;;;;;;6334471;22;46495;-76
2023/03/24 10:08:35;;;;;;;;;0.00;0.00;;;;;;;;6334927;22;45569;-78
2023/03/24 10:11:19;;;;;;;;;0.00;0.00;;;;;;;;6334640;22;45277;-77
2023/03/24 10:13:57;;;;;;;;;3.50;0.25;;;;;;;;6334181;22;45350;-77
2023/03/24 10:16:31;;;;;;;;;0.25;0.25;;;;;;;;6333844;22;45627;-76
2023/03/24 10:19:16;;;;;;;;;1.75;0.00;;;;;;;;6333408;22;45328;-78
2023/03/24 10:21:49;;;;;;;;;0.50;0.00;;;;;;;;6331189;22;45505;-78
2023/03/24 10:24:14;;;;;;;;;0.25;0.00;;;;;;;;6332563;22;45536;-78
2023/03/24 10:26:44;;;;;;;;;0.00;0.00;;;;;;;;6334072;22;45363;-79
2023/03/24 10:29:10;;;;;;;;;2.00;0.00;;;;;;;;6333826;22;45294;-77
2023/03/24 10:31:37;;;;;;;;;0.00;0.00;;;;;;;;6333831;22;45218;-79
2023/03/24 10:34:03;;;;;;;;;3.50;1.00;;;;;;;;6334379;22;45416;-78
2023/03/24 10:36:29;;;;;;;;;3.75;0.75;;;;;;;;6334534;22;46402;-78
2023/03/24 10:38:55;;;;;;;;;2.00;0.00;;;;;;;;6333979;22;45691;-79
2023/03/24 10:41:24;;;;;;;;;2.00;1.00;;;;;;;;6333792;22;45324;-79
2023/03/24 10:43:50;;;;;;;;;4.00;0.00;;;;;;;;6334739;22;45475;-79
2023/03/24 10:46:18;;;;;;;;;1.00;0.00;;;;;;;;6333525;22;45517;-78
2023/03/24 10:48:48;;;;;;;;;2.50;0.00;;;;;;;;6334782;22;45499;-79
2023/03/24 10:51:22;;;;;;;;;0.00;0.00;;;;;;;;6335718;22;45371;-79
2023/03/24 10:53:47;;;;;;;;;1.00;0.00;;;;;;;;6335724;22;45291;-78
2023/03/24 10:56:37;;;;;;;;;0.50;0.00;;;;;;;;6335797;22;46326;-78
2023/03/24 10:59:02;;;;;;;;;1.75;1.00;;;;;;;;6335045;22;45830;-77
2023/03/24 11:01:31;;;;;;;;;1.25;0.00;;;;;;;;6335168;22;45378;-78
2023/03/24 11:03:59;;;;;;;;;1.00;0.25;;;;;;;;6335708;22;45410;-77
2023/03/24 11:06:24;;;;;;;;;1.50;0.00;;;;;;;;6335364;22;46111;-79
2023/03/24 11:09:06;;;;;;;;;3.00;0.00;;;;;;;;6335833;22;45299;-78
2023/03/24 11:11:31;;;;;;;;;0.00;0.00;;;;;;;;6335061;22;45289;-80
2023/03/24 11:14:00;;;;;;;;;0.67;0.00;;;;;;;;6335610;22;45159;-78
2023/03/24 11:16:30;;;;;;;;;1.00;0.00;;;;;;;;6334499;22;47539;-77
2023/03/24 11:18:57;;;;;;;;;2.25;0.00;;;;;;;;6335012;22;45339;-79
2023/03/24 11:21:23;;;;;;;;;2.50;0.00;;;;;;;;6334545;22;45415;-78
2023/03/24 11:23:49;;;;;;;;;1.75;0.00;;;;;;;;6335389;22;45452;-77
2023/03/24 11:26:18;;;;;;;;;1.00;1.00;;;;;;;;6334793;22;45367;-77
2023/03/24 11:28:51;;;;;;;;;0.50;0.50;;;;;;;;6335160;22;45301;-79
2023/03/24 11:31:24;;;;;;;;;3.00;1.00;;;;;;;;6332915;22;45353;-78
2023/03/24 11:33:58;;;;;;;;;2.00;0.50;;;;;;;;6334783;22;45371;-78
2023/03/24 11:36:29;;;;;;;;;0.00;0.00;;;;;;;;6335323;22;46272;-77
2023/03/24 11:39:00;;;;;;;;;4.00;0.00;;;;;;;;6335383;22;45598;-77
2023/03/24 11:41:26;;;;;;;;;0.00;0.00;;;;;;;;6335189;22;45319;-77
2023/03/24 11:44:11;;;;;;;;;1.00;0.00;;;;;;;;6333480;22;45391;-78
2023/03/24 11:46:39;;;;;;;;;1.50;0.00;;;;;;;;6331907;22;46858;-78
2023/03/24 11:49:05;;;;;;;;;0.00;0.00;;;;;;;;6335201;22;45434;-78
2023/03/24 11:51:35;;;;;;;;;1.25;0.00;;;;;;;;6335414;22;45407;-79
2023/03/24 11:54:02;;;;;;;;;0.25;0.00;;;;;;;;6335522;22;45311;-80
2023/03/24 11:56:39;;;;;;;;;1.75;0.00;;;;;;;;6334576;22;46165;-77
2023/03/24 11:59:13;;;;;;;;;0.75;0.00;;;;;;;;6333756;22;45355;-77
2023/03/24 12:01:45;;;;;;;;;0.75;0.00;;;;;;;;6334721;22;45414;-79
2023/03/24 12:04:23;;;;;;;;;0.00;0.00;;;;;;;;6335426;22;45385;-78
2023/03/24 12:06:48;;;;;;;;;2.00;0.00;;;;;;;;6334667;22;45408;-78
2023/03/24 12:09:16;;;;;;;;;1.00;0.00;;;;;;;;6334464;22;45309;-78
2023/03/24 12:11:51;;;;;;;;;1.00;0.00;;;;;;;;6335128;22;45215;-77
2023/03/24 12:14:37;;;;;;;;;1.00;0.00;;;;;;;;6334450;22;45216;-78
2023/03/24 12:17:22;;;;;;;;;0.00;0.00;;;;;;;;6334130;22;46466;-78
2023/03/24 12:19:47;;;;;;;;;0.00;0.00;;;;;;;;6335033;22;45444;-76
2023/03/24 16:16:57;;;;;;;;;0.00;0.00;;;;;;;;4230202;22;47983;-78
2023/03/24 16:19:23;;;;;;;;;0.00;0.00;;;;;;;;6305135;22;45460;-82
2023/03/24 16:21:48;;;;;;;;;0.00;0.00;;;;;;;;6305306;22;45292;-82
2023/03/24 16:24:13;;;;;;;;;0.00;0.00;;;;;;;;6277565;22;45308;-80
2023/03/24 16:26:38;;;;;;;;;0.00;0.00;;;;;;;;6305420;22;45253;-81
2023/03/24 16:29:15;;;;;;;;;0.00;0.00;;;;;;;;6304775;22;46181;-79
2023/03/24 16:31:41;;;;;;;;;0.25;0.25;;;;;;;;6304537;22;45254;-81
2023/03/24 16:34:06;;;;;;;;;3.00;0.00;;;;;;;;6304889;22;45166;-79
2023/03/24 16:36:31;;;;;;;;;2.00;0.00;;;;;;;;6305333;22;45451;-81
2023/03/24 16:38:57;;;;;;;;;1.25;0.00;;;;;;;;6304414;22;46015;-81
2023/03/24 16:41:23;;;;;;;;;5.25;5.25;;;;;;;;6304736;22;45557;-80
2023/03/24 16:43:48;;;;;;;;;4.00;4.00;;;;;;;;6305270;22;45209;-82
2023/03/24 16:46:32;;;;;;;;;9.00;4.25;;;;;;;;6304543;22;45162;-80
2023/03/24 16:48:59;;;;;;;;;0.50;0.00;;;;;;;;6304581;22;46408;-80
2023/03/24 16:51:24;;;;;;;;;0.00;0.00;;;;;;;;6304757;22;45183;-80
2023/03/24 16:53:49;;;;;;;;;2.00;0.33;;;;;;;;6304912;22;45131;-80
2023/03/24 16:56:18;;;;;;;;;1.50;0.00;;;;;;;;6305242;22;45407;-79
2023/03/24 16:58:46;;;;;;;;;0.75;0.00;;;;;;;;6305016;22;45452;-80
2023/03/24 17:01:25;;;;;;;;;0.00;0.00;;;;;;;;6304313;22;45353;-81
2023/03/24 17:03:58;;;;;;;;;2.00;0.00;;;;;;;;6305069;22;45423;-81
2023/03/24 17:06:24;;;;;;;;;3.00;0.50;;;;;;;;6301690;22;45447;-81
2023/03/24 17:08:49;;;;;;;;;0.00;0.00;;;;;;;;6303646;22;45379;-80
2023/03/24 17:11:16;;;;;;;;;0.00;0.00;;;;;;;;6304470;22;45371;-79
2023/03/24 17:13:41;;;;;;;;;2.25;1.00;;;;;;;;6304661;22;45269;-80
2023/03/24 17:16:10;;;;;;;;;1.00;1.00;;;;;;;;6275880;22;45492;-80
2023/03/24 17:18:38;;;;;;;;;0.75;0.00;;;;;;;;6303858;22;45320;-80
2023/03/24 17:21:05;;;;;;;;;0.00;0.00;;;;;;;;6304278;22;45298;-80
2023/03/24 17:23:30;;;;;;;;;0.00;0.00;;;;;;;;6305000;22;45288;-81
2023/03/24 17:25:55;;;;;;;;;0.33;0.00;;;;;;;;6304855;22;45308;-79
2023/03/24 17:28:20;;;;;;;;;0.00;0.00;;;;;;;;6304697;22;45284;-78
2023/03/24 17:30:46;;;;;;;;;0.00;0.00;;;;;;;;6304089;22;45326;-78
2023/03/24 17:33:12;;;;;;;;;0.00;0.00;;;;;;;;6304848;22;45323;-78
2023/03/24 17:35:37;;;;;;;;;0.00;0.00;;;;;;;;6304246;22;45324;-77
2023/03/24 17:38:02;;;;;;;;;1.00;0.00;;;;;;;;6304557;22;46259;-79
2023/03/24 17:40:28;;;;;;;;;0.00;0.00;;;;;;;;6304540;22;45507;-77
2023/03/24 17:42:53;;;;;;;;;0.00;0.00;;;;;;;;6276448;22;45361;-76
2023/03/24 17:45:18;;;;;;;;;0.00;0.00;;;;;;;;6303764;22;45243;-76
2023/03/24 17:47:44;;;;;;;;;0.00;0.00;;;;;;;;6303723;22;45276;-77
2023/03/24 17:50:10;;;;;;;;;0.00;0.00;;;;;;;;6303825;22;45298;-80
2023/03/24 17:52:36;;;;;;;;;0.00;0.00;;;;;;;;6304249;22;45288;-78
2023/03/24 17:55:03;;;;;;;;;0.00;0.00;;;;;;;;6304213;22;45486;-78
2023/03/24 17:57:28;;;;;;;;;0.00;0.00;;;;;;;;6302839;22;46422;-79
2023/03/24 17:59:53;;;;;;;;;1.00;0.00;;;;;;;;6303122;22;45344;-78
2023/03/24 18:02:19;;;;;;;;;0.00;0.00;;;;;;;;6304225;22;45315;-78
2023/03/24 18:04:44;;;;;;;;;0.75;0.00;;;;;;;;6303448;22;45646;-78
2023/03/24 18:07:10;;;;;;;;;0.00;0.00;;;;;;;;6303604;22;45973;-78
2023/03/24 18:09:36;;;;;;;;;0.00;0.00;;;;;;;;6303859;22;45829;-79
2023/03/24 18:12:02;;;;;;;;;1.00;0.00;;;;;;;;6304046;22;45357;-78
2023/03/24 18:14:27;;;;;;;;;0.00;0.00;;;;;;;;6303983;22;45400;-78
2023/03/24 18:16:52;;;;;;;;;1.00;0.00;;;;;;;;6303593;22;46179;-79
2023/03/24 18:19:17;;;;;;;;;0.00;0.00;;;;;;;;6303591;22;45295;-78
2023/03/24 18:21:43;;;;;;;;;0.00;0.00;;;;;;;;6276248;22;45332;-78
2023/03/24 18:24:08;;;;;;;;;0.00;0.00;;;;;;;;6304161;22;45336;-79
2023/03/24 18:26:34;;;;;;;;;0.00;0.00;;;;;;;;6303507;22;46490;-78
2023/03/24 18:28:59;;;;;;;;;2.00;0.00;;;;;;;;6303344;22;45347;-78
2023/03/24 18:31:25;;;;;;;;;0.00;0.00;;;;;;;;6304108;22;45403;-78
2023/03/24 18:33:51;;;;;;;;;0.00;0.00;;;;;;;;6276204;22;45618;-78
2023/03/24 18:36:20;;;;;;;;;1.50;0.00;;;;;;;;6275793;22;47504;-77
2023/03/24 18:38:46;;;;;;;;;1.50;0.00;;;;;;;;6303426;22;45309;-78
2023/03/24 18:41:12;;;;;;;;;1.00;0.00;;;;;;;;6304154;22;45237;-79